sensor_id;sensor_type;location;lat;lon;timestamp;pressure;altitude;pressure_sealevel;temperature;humidity
41712;BME280;27399;51.516;13.670;2022-09-28T00:01:41;98764.75;;;10.45;87.92
41712;BME280;27399;51.516;13.670;2022-09-28T00:04:07;98714.66;;;10.28;88.28
41712;BME280;27399;51.516;13.670;2022-09-28T00:06:36;98763.00;;;10.69;87.58
41712;BME280;27399;51.516;13.670;2022-09-28T00:09:11;98755.72;;;10.75;86.91
41712;BME280;27399;51.516;13.670;2022-09-28T00:11:39;98757.88;;;10.89;86.65
41712;BME280;27399;51.516;13.670;2022-09-28T00:14:10;98760.97;;;11.01;85.77
41712;BME280;27399;51.516;13.670;2022-09-28T00:16:40;98762.94;;;10.96;86.33
41712;BME280;27399;51.516;13.670;2022-09-28T00:19:06;98755.63;;;11.01;87.21
41712;BME280;27399;51.516;13.670;2022-09-28T00:21:34;98753.91;;;11.24;85.33
41712;BME280;27399;51.516;13.670;2022-09-28T00:24:04;98756.34;;;11.30;85.19
41712;BME280;27399;51.516;13.670;2022-09-28T00:26:46;98750.31;;;11.25;84.86
41712;BME280;27399;51.516;13.670;2022-09-28T00:29:26;98744.22;;;11.22;84.65
41712;BME280;27399;51.516;13.670;2022-09-28T00:32:03;98735.00;;;11.30;85.06
41712;BME280;27399;51.516;13.670;2022-09-28T00:34:33;98740.19;;;11.34;86.26
41712;BME280;27399;51.516;13.670;2022-09-28T00:37:02;98743.13;;;11.27;85.24
41712;BME280;27399;51.516;13.670;2022-09-28T00:39:29;98736.31;;;11.42;84.25
41712;BME280;27399;51.516;13.670;2022-09-28T00:41:58;98738.44;;;11.34;84.33
41712;BME280;27399;51.516;13.670;2022-09-28T00:46:54;98735.22;;;11.24;85.96
41712;BME280;27399;51.516;13.670;2022-09-28T00:49:25;98727.81;;;11.09;86.71
41712;BME280;27399;51.516;13.670;2022-09-28T00:51:58;98727.69;;;11.12;86.49
41712;BME280;27399;51.516;13.670;2022-09-28T00:54:27;98728.34;;;10.95;87.56
41712;BME280;27399;51.516;13.670;2022-09-28T00:56:53;98725.47;;;10.76;88.46
41712;BME280;27399;51.516;13.670;2022-09-28T00:59:20;98722.47;;;11.09;87.90
41712;BME280;27399;51.516;13.670;2022-09-28T01:01:48;98728.66;;;10.85;89.46
41712;BME280;27399;51.516;13.670;2022-09-28T01:04:17;98730.47;;;10.85;89.05
41712;BME280;27399;51.516;13.670;2022-09-28T01:06:43;98729.94;;;10.99;89.29
41712;BME280;27399;51.516;13.670;2022-09-28T01:09:09;98725.44;;;11.01;88.60
41712;BME280;27399;51.516;13.670;2022-09-28T01:11:42;98727.91;;;10.82;89.13
41712;BME280;27399;51.516;13.670;2022-09-28T01:14:09;98730.34;;;10.88;87.72
41712;BME280;27399;51.516;13.670;2022-09-28T01:16:54;98724.22;;;11.10;87.98
41712;BME280;27399;51.516;13.670;2022-09-28T01:19:48;98713.88;;;11.24;86.48
41712;BME280;27399;51.516;13.670;2022-09-28T01:22:14;98709.44;;;11.25;86.92
41712;BME280;27399;51.516;13.670;2022-09-28T01:27:31;98706.63;;;11.28;86.90
41712;BME280;27399;51.516;13.670;2022-09-28T01:35:14;98699.22;;;11.36;85.39
41712;BME280;27399;51.516;13.670;2022-09-28T01:40:07;98695.44;;;11.18;85.83
41712;BME280;27399;51.516;13.670;2022-09-28T01:42:36;98695.16;;;11.02;88.16
41712;BME280;27399;51.516;13.670;2022-09-28T01:45:09;98692.78;;;11.18;87.92
41712;BME280;27399;51.516;13.670;2022-09-28T01:47:39;98691.50;;;11.05;88.04
41712;BME280;27399;51.516;13.670;2022-09-28T01:50:09;98699.00;;;10.95;88.48
41712;BME280;27399;51.516;13.670;2022-09-28T01:52:44;98697.19;;;10.95;88.84
41712;BME280;27399;51.516;13.670;2022-09-28T01:55:15;98688.72;;;11.08;86.88
41712;BME280;27399;51.516;13.670;2022-09-28T02:00:42;98688.16;;;10.76;88.20
41712;BME280;27399;51.516;13.670;2022-09-28T02:03:13;98681.00;;;11.00;87.89
41712;BME280;27399;51.516;13.670;2022-09-28T02:06:04;98684.06;;;10.65;89.09
41712;BME280;27399;51.516;13.670;2022-09-28T02:08:28;98681.06;;;10.75;88.17
41712;BME280;27399;51.516;13.670;2022-09-28T02:11:07;98633.53;;;10.62;87.94
41712;BME280;27399;51.516;13.670;2022-09-28T02:13:39;98672.06;;;10.53;89.69
41712;BME280;27399;51.516;13.670;2022-09-28T02:18:44;98678.94;;;10.59;88.88
41712;BME280;27399;51.516;13.670;2022-09-28T02:21:27;98669.88;;;10.65;87.96
41712;BME280;27399;51.516;13.670;2022-09-28T02:24:01;98679.66;;;10.64;87.23
41712;BME280;27399;51.516;13.670;2022-09-28T02:26:29;98679.22;;;10.77;86.22
41712;BME280;27399;51.516;13.670;2022-09-28T02:28:59;98673.88;;;10.77;86.86
41712;BME280;27399;51.516;13.670;2022-09-28T02:31:25;98674.72;;;10.79;86.20
41712;BME280;27399;51.516;13.670;2022-09-28T02:33:59;98663.69;;;10.88;85.51
41712;BME280;27399;51.516;13.670;2022-09-28T02:36:31;98667.31;;;10.85;85.25
41712;BME280;27399;51.516;13.670;2022-09-28T02:39:00;98657.63;;;10.84;85.66
41712;BME280;27399;51.516;13.670;2022-09-28T02:45:14;98621.19;;;10.34;85.84
41712;BME280;27399;51.516;13.670;2022-09-28T02:49:39;98661.38;;;10.79;84.88
41712;BME280;27399;51.516;13.670;2022-09-28T02:54:51;98651.13;;;10.90;84.57
41712;BME280;27399;51.516;13.670;2022-09-28T02:57:28;98650.22;;;10.91;84.43
41712;BME280;27399;51.516;13.670;2022-09-28T03:00:06;98653.84;;;10.66;86.30
41712;BME280;27399;51.516;13.670;2022-09-28T03:02:39;98656.84;;;10.57;85.99
41712;BME280;27399;51.516;13.670;2022-09-28T03:05:12;98655.75;;;10.37;86.36
41712;BME280;27399;51.516;13.670;2022-09-28T03:10:43;98643.31;;;10.11;86.42
41712;BME280;27399;51.516;13.670;2022-09-28T03:13:12;98646.03;;;10.10;86.04
41712;BME280;27399;51.516;13.670;2022-09-28T03:15:38;98643.53;;;10.05;85.84
41712;BME280;27399;51.516;13.670;2022-09-28T03:18:09;98637.97;;;10.13;86.11
41712;BME280;27399;51.516;13.670;2022-09-28T03:20:34;98630.63;;;9.94;86.80
41712;BME280;27399;51.516;13.670;2022-09-28T03:23:01;98631.03;;;9.82;86.42
41712;BME280;27399;51.516;13.670;2022-09-28T03:25:27;98628.47;;;9.79;86.75
41712;BME280;27399;51.516;13.670;2022-09-28T03:27:52;98623.16;;;9.79;86.72
41712;BME280;27399;51.516;13.670;2022-09-28T03:30:23;98627.19;;;9.64;86.98
41712;BME280;27399;51.516;13.670;2022-09-28T03:32:55;98628.41;;;9.80;86.35
41712;BME280;27399;51.516;13.670;2022-09-28T03:35:24;98618.53;;;9.84;86.06
41712;BME280;27399;51.516;13.670;2022-09-28T03:37:53;98572.59;;;9.52;85.90
41712;BME280;27399;51.516;13.670;2022-09-28T03:40:18;98617.97;;;9.74;85.80
41712;BME280;27399;51.516;13.670;2022-09-28T03:42:44;98617.56;;;9.59;86.38
41712;BME280;27399;51.516;13.670;2022-09-28T03:45:10;98621.94;;;9.62;86.13
41712;BME280;27399;51.516;13.670;2022-09-28T03:47:35;98621.78;;;9.67;86.12
41712;BME280;27399;51.516;13.670;2022-09-28T03:50:01;98623.16;;;9.52;85.58
41712;BME280;27399;51.516;13.670;2022-09-28T03:52:27;98610.16;;;9.69;85.92
41712;BME280;27399;51.516;13.670;2022-09-28T03:54:52;98620.06;;;9.64;85.96
41712;BME280;27399;51.516;13.670;2022-09-28T03:57:18;98612.97;;;9.65;85.77
41712;BME280;27399;51.516;13.670;2022-09-28T03:59:44;98613.00;;;9.63;84.37
41712;BME280;27399;51.516;13.670;2022-09-28T04:02:09;98608.97;;;9.51;84.98
41712;BME280;27399;51.516;13.670;2022-09-28T04:04:38;98615.56;;;9.39;86.00
41712;BME280;27399;51.516;13.670;2022-09-28T04:07:03;98610.47;;;9.60;85.50
41712;BME280;27399;51.516;13.670;2022-09-28T04:09:29;98608.66;;;9.34;86.61
41712;BME280;27399;51.516;13.670;2022-09-28T04:11:55;98608.22;;;9.48;86.14
41712;BME280;27399;51.516;13.670;2022-09-28T04:14:23;98609.22;;;9.43;85.67
41712;BME280;27399;51.516;13.670;2022-09-28T04:16:49;98614.34;;;9.50;85.46
41712;BME280;27399;51.516;13.670;2022-09-28T04:19:18;98616.19;;;9.48;85.05
41712;BME280;27399;51.516;13.670;2022-09-28T04:21:47;98609.53;;;9.61;85.62
41712;BME280;27399;51.516;13.670;2022-09-28T04:24:15;98610.81;;;9.76;86.11
41712;BME280;27399;51.516;13.670;2022-09-28T04:26:41;98613.56;;;9.73;86.83
41712;BME280;27399;51.516;13.670;2022-09-28T04:29:09;98612.91;;;9.93;85.98
41712;BME280;27399;51.516;13.670;2022-09-28T04:31:51;98606.53;;;9.97;86.96
41712;BME280;27399;51.516;13.670;2022-09-28T04:34:18;98608.34;;;9.97;87.38
41712;BME280;27399;51.516;13.670;2022-09-28T04:36:44;98599.19;;;9.79;87.76
41712;BME280;27399;51.516;13.670;2022-09-28T04:39:13;98600.94;;;9.80;87.53
41712;BME280;27399;51.516;13.670;2022-09-28T04:41:40;98604.66;;;9.74;87.51
41712;BME280;27399;51.516;13.670;2022-09-28T04:44:05;98598.19;;;9.81;87.12
41712;BME280;27399;51.516;13.670;2022-09-28T04:46:31;98598.16;;;9.83;87.51
41712;BME280;27399;51.516;13.670;2022-09-28T04:48:57;98600.75;;;9.84;87.28
41712;BME280;27399;51.516;13.670;2022-09-28T04:51:23;98599.19;;;9.79;87.57
41712;BME280;27399;51.516;13.670;2022-09-28T04:53:51;98601.16;;;9.73;87.54
41712;BME280;27399;51.516;13.670;2022-09-28T04:56:17;98587.63;;;9.80;87.21
41712;BME280;27399;51.516;13.670;2022-09-28T04:58:43;98575.94;;;9.84;86.95
41712;BME280;27399;51.516;13.670;2022-09-28T05:01:10;98580.56;;;9.79;87.35
41712;BME280;27399;51.516;13.670;2022-09-28T05:03:39;98576.06;;;9.79;87.00
41712;BME280;27399;51.516;13.670;2022-09-28T05:06:05;98575.06;;;9.83;87.27
41712;BME280;27399;51.516;13.670;2022-09-28T05:08:31;98573.66;;;9.73;87.29
41712;BME280;27399;51.516;13.670;2022-09-28T05:10:58;98581.16;;;9.87;86.94
41712;BME280;27399;51.516;13.670;2022-09-28T05:13:23;98562.94;;;9.74;87.17
41712;BME280;27399;51.516;13.670;2022-09-28T05:15:53;98561.66;;;9.86;86.42
41712;BME280;27399;51.516;13.670;2022-09-28T05:18:19;98551.16;;;9.82;86.65
41712;BME280;27399;51.516;13.670;2022-09-28T05:20:44;98549.53;;;9.77;86.61
41712;BME280;27399;51.516;13.670;2022-09-28T05:23:10;98545.88;;;9.55;87.26
41712;BME280;27399;51.516;13.670;2022-09-28T05:25:36;98546.97;;;9.74;86.03
41712;BME280;27399;51.516;13.670;2022-09-28T05:28:02;98552.13;;;9.79;86.27
41712;BME280;27399;51.516;13.670;2022-09-28T05:30:28;98546.28;;;9.69;86.23
41712;BME280;27399;51.516;13.670;2022-09-28T05:32:54;98539.38;;;9.89;86.43
41712;BME280;27399;51.516;13.670;2022-09-28T05:35:19;98532.78;;;9.74;86.82
41712;BME280;27399;51.516;13.670;2022-09-28T05:37:45;98539.84;;;9.50;87.50
41712;BME280;27399;51.516;13.670;2022-09-28T05:40:11;98538.38;;;9.66;87.41
41712;BME280;27399;51.516;13.670;2022-09-28T05:42:37;98533.69;;;9.48;88.08
41712;BME280;27399;51.516;13.670;2022-09-28T05:45:03;98542.78;;;9.67;87.14
41712;BME280;27399;51.516;13.670;2022-09-28T05:47:30;98542.94;;;9.63;87.15
41712;BME280;27399;51.516;13.670;2022-09-28T05:49:56;98538.53;;;9.61;88.32
41712;BME280;27399;51.516;13.670;2022-09-28T05:52:22;98541.59;;;9.76;87.55
41712;BME280;27399;51.516;13.670;2022-09-28T05:54:50;98546.22;;;9.71;87.58
41712;BME280;27399;51.516;13.670;2022-09-28T05:57:16;98539.94;;;9.73;88.33
41712;BME280;27399;51.516;13.670;2022-09-28T05:59:41;98539.44;;;9.87;88.22
41712;BME280;27399;51.516;13.670;2022-09-28T06:02:08;98529.91;;;9.80;88.25
41712;BME280;27399;51.516;13.670;2022-09-28T06:04:34;98527.88;;;9.88;88.29
41712;BME280;27399;51.516;13.670;2022-09-28T06:07:00;98534.59;;;9.73;89.00
41712;BME280;27399;51.516;13.670;2022-09-28T06:09:28;98529.16;;;9.76;89.60
41712;BME280;27399;51.516;13.670;2022-09-28T06:11:58;98521.06;;;9.80;89.74
41712;BME280;27399;51.516;13.670;2022-09-28T06:14:26;98522.72;;;9.84;89.89
41712;BME280;27399;51.516;13.670;2022-09-28T06:16:52;98517.31;;;9.85;90.25
41712;BME280;27399;51.516;13.670;2022-09-28T06:19:21;98514.97;;;10.01;90.04
41712;BME280;27399;51.516;13.670;2022-09-28T06:21:49;98513.22;;;10.00;90.33
41712;BME280;27399;51.516;13.670;2022-09-28T06:24:18;98508.75;;;10.01;90.39
41712;BME280;27399;51.516;13.670;2022-09-28T06:26:46;98505.59;;;10.15;90.38
41712;BME280;27399;51.516;13.670;2022-09-28T06:29:12;98509.06;;;10.17;90.30
41712;BME280;27399;51.516;13.670;2022-09-28T06:31:46;98508.47;;;10.32;90.42
41712;BME280;27399;51.516;13.670;2022-09-28T06:34:12;98497.13;;;10.27;90.02
41712;BME280;27399;51.516;13.670;2022-09-28T06:36:38;98506.09;;;10.24;90.31
41712;BME280;27399;51.516;13.670;2022-09-28T06:39:10;98496.84;;;10.35;90.00
41712;BME280;27399;51.516;13.670;2022-09-28T06:41:36;98495.91;;;10.36;90.10
41712;BME280;27399;51.516;13.670;2022-09-28T06:44:05;98490.16;;;10.48;89.54
41712;BME280;27399;51.516;13.670;2022-09-28T06:46:33;98489.69;;;10.59;90.04
41712;BME280;27399;51.516;13.670;2022-09-28T06:49:03;98487.22;;;10.54;90.41
41712;BME280;27399;51.516;13.670;2022-09-28T06:51:36;98486.00;;;10.63;90.08
41712;BME280;27399;51.516;13.670;2022-09-28T06:54:04;98484.25;;;10.62;90.70
41712;BME280;27399;51.516;13.670;2022-09-28T06:56:30;98487.25;;;10.77;90.41
41712;BME280;27399;51.516;13.670;2022-09-28T06:59:02;98477.09;;;10.64;90.79
41712;BME280;27399;51.516;13.670;2022-09-28T07:01:28;98486.44;;;10.75;90.15
41712;BME280;27399;51.516;13.670;2022-09-28T07:03:57;98485.75;;;10.69;91.00
41712;BME280;27399;51.516;13.670;2022-09-28T07:06:26;98495.25;;;10.77;90.71
41712;BME280;27399;51.516;13.670;2022-09-28T07:08:55;98490.28;;;10.67;90.90
41712;BME280;27399;51.516;13.670;2022-09-28T07:11:21;98485.13;;;10.85;90.30
41712;BME280;27399;51.516;13.670;2022-09-28T07:13:51;98494.19;;;10.81;90.78
41712;BME280;27399;51.516;13.670;2022-09-28T07:16:19;98496.34;;;10.93;89.74
41712;BME280;27399;51.516;13.670;2022-09-28T07:18:45;98498.53;;;10.83;89.80
41712;BME280;27399;51.516;13.670;2022-09-28T07:21:13;98506.53;;;11.06;89.67
41712;BME280;27399;51.516;13.670;2022-09-28T07:23:42;98505.47;;;11.10;90.13
41712;BME280;27399;51.516;13.670;2022-09-28T07:26:11;98507.47;;;11.05;90.04
41712;BME280;27399;51.516;13.670;2022-09-28T07:28:36;98507.25;;;11.09;89.71
41712;BME280;27399;51.516;13.670;2022-09-28T07:31:04;98501.88;;;11.11;88.38
41712;BME280;27399;51.516;13.670;2022-09-28T07:33:33;98506.44;;;11.07;90.28
41712;BME280;27399;51.516;13.670;2022-09-28T07:36:05;98503.47;;;11.15;89.73
41712;BME280;27399;51.516;13.670;2022-09-28T07:38:33;98506.88;;;11.41;90.17
41712;BME280;27399;51.516;13.670;2022-09-28T07:41:02;98501.31;;;11.25;89.74
41712;BME280;27399;51.516;13.670;2022-09-28T07:43:38;98505.97;;;11.40;88.91
41712;BME280;27399;51.516;13.670;2022-09-28T07:46:04;98508.09;;;11.32;89.62
41712;BME280;27399;51.516;13.670;2022-09-28T07:48:41;98512.84;;;11.46;89.91
41712;BME280;27399;51.516;13.670;2022-09-28T07:51:07;98509.66;;;11.58;89.92
41712;BME280;27399;51.516;13.670;2022-09-28T07:53:33;98517.03;;;11.53;89.75
41712;BME280;27399;51.516;13.670;2022-09-28T07:56:03;98507.81;;;11.60;89.41
41712;BME280;27399;51.516;13.670;2022-09-28T07:58:33;98506.53;;;11.69;89.55
41712;BME280;27399;51.516;13.670;2022-09-28T08:01:02;98513.22;;;11.80;89.94
41712;BME280;27399;51.516;13.670;2022-09-28T08:03:31;98509.25;;;11.88;90.05
41712;BME280;27399;51.516;13.670;2022-09-28T08:05:58;98510.13;;;11.89;90.19
41712;BME280;27399;51.516;13.670;2022-09-28T08:08:26;98508.44;;;11.86;89.74
41712;BME280;27399;51.516;13.670;2022-09-28T08:10:54;98509.13;;;11.91;89.65
41712;BME280;27399;51.516;13.670;2022-09-28T08:13:25;98511.19;;;11.85;90.74
41712;BME280;27399;51.516;13.670;2022-09-28T08:15:58;98505.72;;;11.88;89.80
41712;BME280;27399;51.516;13.670;2022-09-28T08:18:27;98509.38;;;11.85;90.07
41712;BME280;27399;51.516;13.670;2022-09-28T08:21:00;98511.28;;;11.83;89.88
41712;BME280;27399;51.516;13.670;2022-09-28T08:23:44;98511.41;;;11.80;90.17
41712;BME280;27399;51.516;13.670;2022-09-28T08:26:10;98517.22;;;11.90;90.94
41712;BME280;27399;51.516;13.670;2022-09-28T08:28:36;98517.00;;;11.94;90.38
41712;BME280;27399;51.516;13.670;2022-09-28T08:31:03;98516.06;;;11.96;90.56
41712;BME280;27399;51.516;13.670;2022-09-28T08:33:37;98509.53;;;12.03;91.40
41712;BME280;27399;51.516;13.670;2022-09-28T08:36:07;98506.91;;;12.22;90.31
41712;BME280;27399;51.516;13.670;2022-09-28T08:38:36;98509.94;;;12.14;91.01
41712;BME280;27399;51.516;13.670;2022-09-28T08:46:28;98504.75;;;12.30;89.78
41712;BME280;27399;51.516;13.670;2022-09-28T08:49:00;98507.19;;;12.35;88.13
41712;BME280;27399;51.516;13.670;2022-09-28T08:51:38;98508.78;;;12.39;87.96
41712;BME280;27399;51.516;13.670;2022-09-28T08:56:56;98506.03;;;12.60;87.72
41712;BME280;27399;51.516;13.670;2022-09-28T08:59:40;98510.03;;;12.51;88.56
41712;BME280;27399;51.516;13.670;2022-09-28T09:02:13;98505.88;;;12.63;89.05
41712;BME280;27399;51.516;13.670;2022-09-28T09:04:39;98509.81;;;12.55;86.38
41712;BME280;27399;51.516;13.670;2022-09-28T09:17:21;98506.47;;;12.89;86.21
41712;BME280;27399;51.516;13.670;2022-09-28T09:20:05;98504.13;;;13.00;86.19
41712;BME280;27399;51.516;13.670;2022-09-28T09:22:38;98505.13;;;12.97;86.54
41712;BME280;27399;51.516;13.670;2022-09-28T09:28:05;98512.78;;;13.05;85.95
41712;BME280;27399;51.516;13.670;2022-09-28T09:30:47;98505.91;;;12.99;88.96
41712;BME280;27399;51.516;13.670;2022-09-28T09:36:11;98514.38;;;13.09;86.61
41712;BME280;27399;51.516;13.670;2022-09-28T09:38:48;98517.53;;;12.62;87.09
41712;BME280;27399;51.516;13.670;2022-09-28T09:43:53;98504.31;;;12.59;88.37
41712;BME280;27399;51.516;13.670;2022-09-28T09:49:07;98502.41;;;12.61;89.39
41712;BME280;27399;51.516;13.670;2022-09-28T09:56:42;98506.25;;;12.74;88.49
41712;BME280;27399;51.516;13.670;2022-09-28T09:59:51;98505.66;;;12.67;88.62
41712;BME280;27399;51.516;13.670;2022-09-28T10:02:00;98501.91;;;12.91;88.49
41712;BME280;27399;51.516;13.670;2022-09-28T10:04:29;98502.75;;;12.91;88.18
41712;BME280;27399;51.516;13.670;2022-09-28T10:07:00;98502.22;;;13.02;87.24
41712;BME280;27399;51.516;13.670;2022-09-28T10:09:37;98499.06;;;12.94;87.90
41712;BME280;27399;51.516;13.670;2022-09-28T10:12:07;98510.22;;;12.84;87.24
41712;BME280;27399;51.516;13.670;2022-09-28T10:14:34;98500.41;;;12.66;86.49
41712;BME280;27399;51.516;13.670;2022-09-28T10:17:00;98499.94;;;12.94;85.31
41712;BME280;27399;51.516;13.670;2022-09-28T10:19:30;98503.34;;;12.79;85.04
41712;BME280;27399;51.516;13.670;2022-09-28T10:21:59;98511.75;;;13.08;85.82
41712;BME280;27399;51.516;13.670;2022-09-28T10:24:31;98505.22;;;12.96;88.17
41712;BME280;27399;51.516;13.670;2022-09-28T10:27:02;98505.53;;;13.07;89.54
41712;BME280;27399;51.516;13.670;2022-09-28T10:29:28;98507.97;;;12.94;87.32
41712;BME280;27399;51.516;13.670;2022-09-28T10:32:00;98507.03;;;12.95;87.69
41712;BME280;27399;51.516;13.670;2022-09-28T10:34:27;98510.50;;;12.40;87.58
41712;BME280;27399;51.516;13.670;2022-09-28T10:37:00;98504.00;;;12.84;87.47
41712;BME280;27399;51.516;13.670;2022-09-28T10:41:53;98498.66;;;12.84;87.42
41712;BME280;27399;51.516;13.670;2022-09-28T10:44:18;98501.25;;;12.85;85.84
41712;BME280;27399;51.516;13.670;2022-09-28T10:46:53;98505.03;;;12.62;84.71
41712;BME280;27399;51.516;13.670;2022-09-28T10:49:20;98500.63;;;12.80;84.59
41712;BME280;27399;51.516;13.670;2022-09-28T10:51:47;98500.88;;;12.93;84.75
41712;BME280;27399;51.516;13.670;2022-09-28T10:54:17;98502.38;;;12.99;85.07
41712;BME280;27399;51.516;13.670;2022-09-28T10:56:43;98506.03;;;12.79;84.79
41712;BME280;27399;51.516;13.670;2022-09-28T11:01:57;98514.72;;;12.46;86.42
41712;BME280;27399;51.516;13.670;2022-09-28T11:10:32;98516.88;;;11.98;86.00
41712;BME280;27399;51.516;13.670;2022-09-28T11:13:01;98519.56;;;11.98;86.74
41712;BME280;27399;51.516;13.670;2022-09-28T11:15:28;98507.72;;;12.03;88.13
41712;BME280;27399;51.516;13.670;2022-09-28T11:17:55;98512.06;;;11.65;88.59
41712;BME280;27399;51.516;13.670;2022-09-28T11:22:54;98501.75;;;11.97;87.89
41712;BME280;27399;51.516;13.670;2022-09-28T11:25:21;98505.84;;;12.05;90.81
41712;BME280;27399;51.516;13.670;2022-09-28T11:33:02;98498.97;;;12.39;87.64
41712;BME280;27399;51.516;13.670;2022-09-28T11:35:34;98493.53;;;12.41;89.25
41712;BME280;27399;51.516;13.670;2022-09-28T11:43:39;98496.06;;;12.06;85.86
41712;BME280;27399;51.516;13.670;2022-09-28T11:46:24;98497.38;;;12.54;86.25
41712;BME280;27399;51.516;13.670;2022-09-28T11:49:01;98499.25;;;12.52;86.38
41712;BME280;27399;51.516;13.670;2022-09-28T11:51:29;98497.72;;;12.28;85.97
41712;BME280;27399;51.516;13.670;2022-09-28T11:54:20;98500.63;;;12.61;87.51
41712;BME280;27399;51.516;13.670;2022-09-28T11:56:46;98499.81;;;12.78;86.27
41712;BME280;27399;51.516;13.670;2022-09-28T11:59:21;98491.59;;;12.64;82.02
41712;BME280;27399;51.516;13.670;2022-09-28T12:01:51;98501.25;;;12.85;81.48
41712;BME280;27399;51.516;13.670;2022-09-28T12:06:50;98505.41;;;12.74;80.71
41712;BME280;27399;51.516;13.670;2022-09-28T12:09:21;98506.50;;;12.87;81.98
41712;BME280;27399;51.516;13.670;2022-09-28T12:11:53;98504.16;;;12.81;80.80
41712;BME280;27399;51.516;13.670;2022-09-28T12:14:25;98509.88;;;12.73;84.82
41712;BME280;27399;51.516;13.670;2022-09-28T12:17:39;98507.03;;;12.76;84.51
41712;BME280;27399;51.516;13.670;2022-09-28T12:19:45;98517.06;;;12.90;85.05
41712;BME280;27399;51.516;13.670;2022-09-28T12:22:23;98512.03;;;12.65;80.46
41712;BME280;27399;51.516;13.670;2022-09-28T12:24:51;98510.31;;;12.64;81.33
41712;BME280;27399;51.516;13.670;2022-09-28T12:29:59;98506.47;;;12.89;83.38
41712;BME280;27399;51.516;13.670;2022-09-28T12:32:35;98504.81;;;12.67;80.95
41712;BME280;27399;51.516;13.670;2022-09-28T12:38:09;98511.97;;;12.47;81.42
41712;BME280;27399;51.516;13.670;2022-09-28T12:40:43;98498.53;;;12.68;82.10
41712;BME280;27399;51.516;13.670;2022-09-28T12:46:03;98514.56;;;12.68;83.78
41712;BME280;27399;51.516;13.670;2022-09-28T12:48:46;98509.50;;;12.62;83.30
41712;BME280;27399;51.516;13.670;2022-09-28T12:51:24;98512.66;;;12.70;83.07
41712;BME280;27399;51.516;13.670;2022-09-28T12:54:05;98521.22;;;12.59;85.79
41712;BME280;27399;51.516;13.670;2022-09-28T12:59:17;98515.88;;;12.78;82.81
41712;BME280;27399;51.516;13.670;2022-09-28T13:01:52;98531.91;;;12.59;85.51
41712;BME280;27399;51.516;13.670;2022-09-28T13:12:29;98532.75;;;12.98;87.20
41712;BME280;27399;51.516;13.670;2022-09-28T13:15:11;98529.97;;;12.82;87.22
41712;BME280;27399;51.516;13.670;2022-09-28T13:17:51;98531.91;;;12.78;86.85
41712;BME280;27399;51.516;13.670;2022-09-28T13:20:37;98532.31;;;12.88;85.90
41712;BME280;27399;51.516;13.670;2022-09-28T13:23:14;98536.47;;;12.95;84.97
41712;BME280;27399;51.516;13.670;2022-09-28T13:26:02;98537.94;;;12.64;87.05
41712;BME280;27399;51.516;13.670;2022-09-28T13:28:30;98540.16;;;12.74;86.67
41712;BME280;27399;51.516;13.670;2022-09-28T13:30:57;98539.00;;;12.79;87.15
41712;BME280;27399;51.516;13.670;2022-09-28T13:33:31;98533.94;;;12.92;87.07
41712;BME280;27399;51.516;13.670;2022-09-28T13:35:59;98540.78;;;12.98;85.51
41712;BME280;27399;51.516;13.670;2022-09-28T13:38:28;98533.22;;;12.89;83.10
41712;BME280;27399;51.516;13.670;2022-09-28T13:41:12;98543.31;;;13.01;86.74
41712;BME280;27399;51.516;13.670;2022-09-28T13:46:09;98544.88;;;13.05;83.82
41712;BME280;27399;51.516;13.670;2022-09-28T13:48:43;98552.44;;;12.97;85.01
41712;BME280;27399;51.516;13.670;2022-09-28T13:51:28;98553.00;;;13.04;85.78
41712;BME280;27399;51.516;13.670;2022-09-28T13:58:55;98570.47;;;13.11;81.48
41712;BME280;27399;51.516;13.670;2022-09-28T14:01:25;98568.59;;;13.13;81.14
41712;BME280;27399;51.516;13.670;2022-09-28T14:04:09;98571.50;;;13.08;82.89
41712;BME280;27399;51.516;13.670;2022-09-28T14:06:35;98577.72;;;13.09;85.01
41712;BME280;27399;51.516;13.670;2022-09-28T14:14:25;98582.94;;;13.12;84.24
41712;BME280;27399;51.516;13.670;2022-09-28T14:28:41;98602.91;;;13.05;86.45
41712;BME280;27399;51.516;13.670;2022-09-28T14:36:58;98600.88;;;12.71;87.22
41712;BME280;27399;51.516;13.670;2022-09-28T14:39:43;98604.34;;;12.93;86.52
41712;BME280;27399;51.516;13.670;2022-09-28T14:42:28;98603.63;;;13.08;85.56
41712;BME280;27399;51.516;13.670;2022-09-28T14:47:35;98618.75;;;13.09;84.62
41712;BME280;27399;51.516;13.670;2022-09-28T14:50:16;98618.50;;;12.95;81.97
41712;BME280;27399;51.516;13.670;2022-09-28T14:52:43;98620.34;;;12.94;83.70
41712;BME280;27399;51.516;13.670;2022-09-28T14:55:13;98619.81;;;12.86;83.90
41712;BME280;27399;51.516;13.670;2022-09-28T14:57:42;98615.91;;;12.74;82.88
41712;BME280;27399;51.516;13.670;2022-09-28T15:00:28;98618.72;;;12.90;84.15
41712;BME280;27399;51.516;13.670;2022-09-28T15:02:59;98623.72;;;12.98;81.72
41712;BME280;27399;51.516;13.670;2022-09-28T15:05:28;98623.66;;;12.99;82.19
41712;BME280;27399;51.516;13.670;2022-09-28T15:07:54;98628.63;;;12.88;84.72
41712;BME280;27399;51.516;13.670;2022-09-28T15:10:28;98626.69;;;12.92;85.42
41712;BME280;27399;51.516;13.670;2022-09-28T15:13:01;98624.88;;;12.73;86.96
41712;BME280;27399;51.516;13.670;2022-09-28T15:15:34;98628.94;;;12.82;84.26
41712;BME280;27399;51.516;13.670;2022-09-28T15:20:28;98629.66;;;13.05;85.00
41712;BME280;27399;51.516;13.670;2022-09-28T15:22:55;98635.88;;;13.05;84.86
41712;BME280;27399;51.516;13.670;2022-09-28T15:25:27;98636.59;;;13.09;82.22
41712;BME280;27399;51.516;13.670;2022-09-28T15:27:55;98633.69;;;13.13;81.50
41712;BME280;27399;51.516;13.670;2022-09-28T15:30:28;98639.56;;;13.02;80.89
41712;BME280;27399;51.516;13.670;2022-09-28T15:32:56;98643.25;;;13.00;83.35
41712;BME280;27399;51.516;13.670;2022-09-28T15:35:44;98640.63;;;12.98;84.17